createdAt,value
2022-10-15T00:04:06.692Z,75013.91
2022-10-15T00:14:16.016Z,74999.75
2022-10-15T00:24:18.141Z,74997.72
2022-10-15T00:34:21.242Z,75007.84
2022-10-15T00:44:31.199Z,75026.06
2022-10-15T00:54:41.183Z,75042.25
2022-10-15T01:04:46.455Z,75052.38
2022-10-15T01:15:11.947Z,75072.59
2022-10-15T01:25:22.329Z,75092.84
2022-10-15T01:35:48.011Z,75098.91
2022-10-15T01:45:58.347Z,75098.91
2022-10-15T01:56:27.752Z,75094.84
2022-10-15T02:06:37.851Z,75076.66
2022-10-15T02:17:11.766Z,75062.47
2022-10-15T02:27:18.352Z,75074.63
2022-10-15T02:37:23.431Z,75096.88
2022-10-15T02:47:27.750Z,75098.91
2022-10-15T02:57:31.972Z,75104.97
2022-10-15T03:07:38.397Z,75111.03
2022-10-15T03:17:43.283Z,75111.03
2022-10-15T03:27:57.685Z,75102.94
2022-10-15T03:38:10.848Z,75102.94
2022-10-15T03:48:15.127Z,75135.31
2022-10-15T03:58:19.702Z,75155.56
2022-10-15T04:08:29.717Z,75187.94
2022-10-15T04:18:33.199Z,75204.13
2022-10-15T04:28:39.224Z,75189.97
2022-10-15T04:38:42.153Z,75187.94
2022-10-15T04:48:50.699Z,75167.69
2022-10-15T04:58:55.954Z,75147.47
2022-10-15T05:09:01.870Z,75127.22
2022-10-15T05:19:07.715Z,75111.03
2022-10-15T05:29:19.542Z,75111.03
2022-10-15T05:39:25.458Z,75072.59
2022-10-15T05:49:34.018Z,75032.13
2022-10-15T05:59:43.399Z,74941.06
2022-10-15T06:09:53.967Z,74856.09
2022-10-15T06:19:59.421Z,74801.47
2022-10-15T06:30:06.678Z,74785.28
2022-10-15T06:40:11.648Z,74761.00
2022-10-15T06:50:17.327Z,74785.28
2022-10-15T07:00:19.464Z,74750.88
2022-10-15T07:10:26.497Z,74710.41
2022-10-15T07:20:32.235Z,74653.75
2022-10-15T07:30:35.019Z,74599.13
2022-10-15T07:40:37.834Z,74544.50
2022-10-15T07:50:40.410Z,74613.28
2022-10-15T08:00:47.288Z,74641.63
2022-10-15T08:10:50.133Z,74688.16
2022-10-15T08:20:52.219Z,74641.63
2022-10-15T08:31:04.384Z,74568.78
2022-10-15T08:41:20.583Z,74536.41
2022-10-15T08:51:54.940Z,74520.22
2022-10-15T09:02:15.766Z,74469.66
2022-10-15T09:12:20.174Z,74453.47
2022-10-15T09:22:28.491Z,74410.97
2022-10-15T09:32:53.484Z,74394.78
2022-10-15T09:43:00.685Z,74362.41
2022-10-15T09:53:32.887Z,74342.19
2022-10-15T10:03:38.376Z,74338.16
2022-10-15T10:13:48.315Z,74307.78
2022-10-15T10:23:53.162Z,74277.44
2022-10-15T10:33:57.457Z,74222.81
2022-10-15T10:44:01.712Z,74198.56
2022-10-15T10:54:08.784Z,74180.34
2022-10-15T11:04:19.535Z,74156.06
2022-10-15T11:14:47.021Z,74115.59
2022-10-15T11:25:05.911Z,74087.28
2022-10-15T11:35:48.254Z,74058.97
2022-10-15T11:46:20.527Z,74022.56
2022-10-15T11:56:36.484Z,73982.09
2022-10-15T12:06:44.279Z,73969.97
2022-10-15T12:16:54.592Z,73976.03
2022-10-15T12:26:59.120Z,73967.94
2022-10-15T12:37:15.891Z,73957.81
2022-10-15T12:47:52.823Z,73945.69
2022-10-15T12:57:57.710Z,73951.75
2022-10-15T13:08:13.175Z,73953.78
2022-10-15T13:18:17.859Z,73953.78
2022-10-15T13:28:37.072Z,73953.78
2022-10-15T13:38:41.904Z,73953.78
2022-10-15T13:49:01.402Z,73949.72
2022-10-15T13:59:04.958Z,73949.72
2022-10-15T14:09:26.967Z,73953.78
2022-10-15T14:19:30.262Z,73974.00
2022-10-15T14:29:46.367Z,73988.16
2022-10-15T14:39:48.554Z,73992.22
2022-10-15T14:49:54.650Z,74022.56
2022-10-15T14:59:57.604Z,74028.63
2022-10-15T15:10:04.383Z,74038.75
2022-10-15T15:20:09.888Z,74046.81
2022-10-15T15:30:18.427Z,74046.81
2022-10-15T15:40:20.907Z,74063.00
2022-10-15T15:50:23.384Z,74065.03
2022-10-15T16:00:27.866Z,74077.16
2022-10-15T16:10:29.892Z,74091.34
2022-10-15T16:20:31.927Z,74099.44
2022-10-15T16:30:36.133Z,74115.59
2022-10-15T16:40:42.864Z,74135.84
2022-10-15T16:50:48.582Z,74147.97
2022-10-15T17:00:50.546Z,74170.22
2022-10-15T17:10:57.678Z,74224.84
2022-10-15T17:21:04.275Z,74297.69
2022-10-15T17:31:10.745Z,74330.06
2022-10-15T17:41:17.785Z,74334.09
2022-10-15T17:51:25.689Z,74340.16
2022-10-15T18:11:57.670Z,74338.16
2022-10-15T18:22:03.071Z,74340.16
2022-10-15T18:32:07.592Z,74350.28
2022-10-15T18:42:09.783Z,74360.41
2022-10-15T18:52:21.607Z,74358.38
2022-10-15T19:02:39.022Z,74346.22
2022-10-15T19:12:44.113Z,74360.41
2022-10-15T19:22:48.530Z,74378.59
2022-10-15T19:32:52.853Z,74394.78
2022-10-15T19:42:57.871Z,74410.97
2022-10-15T19:53:02.374Z,74423.13
2022-10-15T20:03:04.574Z,74431.22
2022-10-15T20:13:06.656Z,74443.34
2022-10-15T20:23:14.820Z,74459.53
2022-10-15T20:33:23.620Z,74477.75
2022-10-15T20:43:26.706Z,74487.84
2022-10-15T20:53:32.032Z,74483.81
2022-10-15T21:03:34.488Z,74495.94
2022-10-15T21:13:37.589Z,74491.91
2022-10-15T21:23:40.990Z,74497.97
2022-10-15T21:33:43.558Z,74506.06
2022-10-15T21:43:47.941Z,74495.94
2022-10-15T21:53:54.962Z,74500.00
2022-10-15T22:04:09.069Z,74512.13
2022-10-15T22:14:18.827Z,74500.00
2022-10-15T22:24:26.015Z,74512.13
2022-10-15T22:34:30.604Z,74528.31
2022-10-15T22:44:38.767Z,74536.41
2022-10-15T22:54:41.289Z,74544.50
2022-10-15T23:04:43.260Z,74562.72
2022-10-15T23:14:45.372Z,74562.72
2022-10-15T23:24:50.456Z,74568.78
2022-10-15T23:34:55.914Z,74578.91
2022-10-15T23:44:57.896Z,74584.97
2022-10-15T23:55:00.150Z,74589.00
